Time;durP1;ratioP1;P1;durP2;ratioP2;P2;SDS_P1;SDS_P2;PMS_P1;PMS_P2;Temp;Humidity;BMP_temperature;BMP_pressure;BME280_temperature;BME280_humidity;BME280_pressure;Samples;Min_cycle;Max_cycle;Signal;HPM_P1;HPM_P2
2022/02/22 00:00:20;;;;;;;5.87;1.40;;;5.10;76.00;;;3.63;74.57;97440.44;5039446;28;20439;-87
2022/02/22 00:02:50;;;;;;;5.63;1.20;;;5.10;75.80;;;3.67;74.60;97441.75;5041973;28;20512;-90
2022/02/22 00:05:17;;;;;;;4.40;1.50;;;5.10;75.80;;;3.22;74.30;97372.28;5041337;28;20470;-87
2022/02/22 00:07:44;;;;;;;5.67;1.20;;;5.10;75.90;;;3.61;74.36;97448.66;5036835;28;20512;-88
2022/02/22 00:10:14;;;;;;;4.13;1.20;;;5.10;75.90;;;3.46;74.72;97459.31;5036975;28;20837;-88
2022/02/22 00:12:42;;;;;;;3.67;1.57;;;5.00;75.90;;;3.63;75.64;97461.81;5039215;28;20438;-87
2022/02/22 00:15:10;;;;;;;4.60;1.43;;;5.00;76.30;;;3.59;75.47;97450.69;5042905;28;20441;-88
2022/02/22 00:17:39;;;;;;;2.90;1.37;;;5.10;76.50;;;3.62;75.59;97481.53;5047534;28;20437;-89
2022/02/22 00:20:10;;;;;;;4.67;1.70;;;5.00;76.40;;;3.61;75.88;97467.34;5059776;28;20470;-88
2022/02/22 00:22:38;;;;;;;3.67;1.00;;;5.00;76.90;;;3.15;76.72;97411.44;5059359;28;20441;-90
2022/02/22 00:25:11;;;;;;;4.70;2.33;;;5.00;77.40;;;3.35;78.47;97471.28;5059476;28;20430;-89
2022/02/22 00:27:39;;;;;;;3.43;1.40;;;4.90;78.40;;;3.32;79.46;97490.34;5057987;28;20561;-88
2022/02/22 00:30:07;;;;;;;5.60;2.03;;;4.80;79.30;;;3.26;79.84;97472.38;5044648;28;20450;-89
2022/02/22 00:32:34;;;;;;;2.80;1.37;;;4.70;80.30;;;3.19;81.55;97495.47;5040111;28;20445;-89
2022/02/22 00:35:01;;;;;;;5.50;1.40;;;4.60;81.40;;;3.14;82.54;97500.53;5038468;28;20434;-89
2022/02/22 00:37:30;;;;;;;5.07;1.60;;;4.60;83.70;;;3.03;82.74;97515.97;5038765;28;20528;-91
2022/02/22 00:39:57;;;;;;;6.60;1.53;;;4.50;84.50;;;3.05;82.97;97513.94;5037809;28;20473;-87
2022/02/22 00:42:25;;;;;;;5.20;1.90;;;4.50;85.20;;;3.01;83.20;97507.31;5056979;28;20492;-88
2022/02/22 00:44:53;;;;;;;6.73;1.57;;;4.50;85.40;;;2.98;83.43;97513.84;5053211;28;20485;-87
2022/02/22 00:47:20;;;;;;;4.13;1.00;;;4.50;85.90;;;2.92;83.45;97517.22;5037384;28;20549;-88
2022/02/22 00:49:47;;;;;;;6.33;1.90;;;4.40;86.20;;;2.59;83.84;97465.94;5035790;28;20446;-86
2022/02/22 00:52:14;;;;;;;2.80;1.33;;;4.40;86.90;;;2.95;84.74;97535.53;5035381;28;20474;-87
2022/02/22 00:54:43;;;;;;;9.83;1.97;;;4.40;88.20;;;2.95;85.00;97538.22;5036027;28;20441;-85
2022/02/22 00:57:10;;;;;;;3.90;1.73;;;4.40;88.80;;;2.87;85.44;97526.78;5035566;28;20482;-85
2022/02/22 00:59:37;;;;;;;2.87;1.70;;;4.30;89.00;;;2.79;85.20;97541.81;5035857;28;20983;-85
2022/02/22 01:02:05;;;;;;;2.20;1.40;;;4.30;89.00;;;2.85;85.39;97553.63;5035662;28;20541;-84
2022/02/22 01:04:32;;;;;;;5.30;1.43;;;4.30;88.80;;;2.76;85.44;97546.69;5035803;28;20466;-84
2022/02/22 01:06:59;;;;;;;4.20;1.53;;;4.30;88.90;;;2.77;84.83;97551.03;5035121;28;20511;-84
2022/02/22 01:09:26;;;;;;;3.53;1.20;;;4.30;88.80;;;2.77;85.56;97549.19;5034241;28;20961;-84
2022/02/22 01:11:54;;;;;;;6.70;1.70;;;4.30;88.90;;;2.81;84.97;97545.16;5036063;28;20529;-85
2022/02/22 01:14:21;;;;;;;5.33;1.40;;;4.20;89.40;;;2.74;85.28;97549.53;5034092;28;20845;-84
2022/02/22 01:16:48;;;;;;;5.97;1.70;;;4.20;89.30;;;2.75;85.18;97553.84;5034432;28;20481;-84
2022/02/22 01:19:15;;;;;;;3.53;1.47;;;4.20;89.10;;;2.74;85.82;97554.88;5034041;28;20677;-86
2022/02/22 01:21:42;;;;;;;6.83;2.30;;;4.20;89.50;;;2.74;86.31;97551.38;5034430;28;20521;-84
2022/02/22 01:24:10;;;;;;;4.23;1.80;;;4.20;90.10;;;2.90;85.52;97566.44;5035365;28;20910;-84
2022/02/22 01:26:38;;;;;;;7.10;2.10;;;4.30;89.60;;;2.68;85.79;97539.59;5034003;28;20934;-83
2022/02/22 01:29:06;;;;;;;5.57;1.90;;;4.30;89.00;;;2.88;85.72;97571.97;5034566;28;20490;-83
2022/02/22 01:31:33;;;;;;;3.33;1.80;;;4.30;89.20;;;2.89;84.94;97573.63;5034124;28;20534;-84
2022/02/22 01:34:00;;;;;;;6.17;1.73;;;4.30;88.90;;;2.96;84.80;97571.91;5033612;28;20530;-84
2022/02/22 01:36:28;;;;;;;3.87;1.50;;;4.30;89.10;;;2.91;85.41;97573.44;5037274;28;20492;-83
2022/02/22 01:38:55;;;;;;;3.97;1.60;;;4.40;88.80;;;3.01;84.52;97571.38;5036368;28;20516;-84
2022/02/22 01:41:25;;;;;;;5.27;1.40;;;4.40;88.20;;;3.04;84.08;97576.34;5034257;28;20525;-86
2022/02/22 01:43:52;;;;;;;2.77;1.27;;;4.50;87.80;;;3.00;84.70;97577.72;5035668;28;20875;-84
2022/02/22 01:46:20;;;;;;;4.93;1.83;;;4.40;87.70;;;3.00;83.69;97572.38;5034188;28;20470;-84
2022/02/22 01:48:48;;;;;;;2.80;1.20;;;4.50;86.40;;;2.92;83.97;97573.28;5033272;28;20584;-83
2022/02/22 01:51:15;;;;;;;5.53;2.47;;;4.40;86.50;;;2.97;83.90;97589.56;5034305;28;20517;-84
2022/02/22 01:53:42;;;;;;;4.00;1.73;;;4.40;87.00;;;2.52;84.19;97525.34;5033510;28;20441;-85
2022/02/22 01:56:09;;;;;;;5.50;1.60;;;4.40;86.90;;;2.47;83.78;97529.53;5035347;28;20461;-84
2022/02/22 01:58:37;;;;;;;8.20;1.63;;;4.40;86.10;;;2.89;83.36;97588.81;5033387;28;20570;-85
2022/02/22 02:01:04;;;;;;;8.90;1.70;;;4.30;85.90;;;2.91;83.48;97598.31;5034821;28;20474;-85
2022/02/22 02:03:33;;;;;;;5.37;2.10;;;4.40;85.40;;;2.79;83.02;97584.50;5034457;28;20593;-85
2022/02/22 02:06:00;;;;;;;4.20;1.33;;;4.30;85.20;;;2.86;82.57;97586.50;5035083;28;20498;-84
2022/02/22 02:08:27;;;;;;;5.63;1.80;;;4.30;84.70;;;2.98;82.25;97601.09;5035574;28;20551;-84
2022/02/22 02:10:55;;;;;;;8.50;1.87;;;4.40;85.00;;;2.90;82.48;97607.31;5035320;28;20489;-84
2022/02/22 02:13:22;;;;;;;2.93;1.43;;;4.40;83.90;;;2.92;82.27;97612.47;5034393;28;20443;-86
2022/02/22 02:15:49;;;;;;;3.67;1.87;;;4.30;83.90;;;2.83;81.97;97603.69;5033266;28;20442;-85
2022/02/22 02:18:16;;;;;;;7.57;1.80;;;4.30;83.50;;;2.82;81.42;97605.53;5034784;28;20549;-84
2022/02/22 02:20:44;;;;;;;3.00;1.20;;;4.30;82.90;;;2.86;80.86;97610.50;5035127;28;20525;-89
2022/02/22 02:23:12;;;;;;;2.20;1.40;;;4.30;82.10;;;2.81;80.71;97600.34;5037545;28;20541;-89
2022/02/22 02:25:40;;;;;;;6.50;1.77;;;4.30;81.90;;;2.79;80.73;97602.38;5034231;28;20466;-87
2022/02/22 02:28:07;;;;;;;5.23;1.87;;;4.30;82.10;;;2.34;80.33;97560.25;5034868;28;20458;-87
2022/02/22 02:30:34;;;;;;;4.20;1.20;;;4.20;80.90;;;2.79;80.14;97632.53;5034286;28;20528;-86
2022/02/22 02:33:01;;;;;;;8.17;1.70;;;4.20;80.90;;;2.70;80.24;97622.94;5036497;28;20474;-87
2022/02/22 02:35:30;;;;;;;5.23;1.80;;;4.20;80.90;;;2.26;80.12;97569.13;5034073;28;20529;-87
2022/02/22 02:37:57;;;;;;;3.47;1.77;;;4.10;80.60;;;2.23;79.82;97582.81;5018123;28;20442;-87
2022/02/22 02:40:26;;;;;;;4.37;1.70;;;4.10;80.60;;;2.55;79.59;97629.00;5034263;28;20942;-86
2022/02/22 02:42:53;;;;;;;6.13;2.00;;;4.10;79.90;;;2.50;79.76;97643.84;5046640;28;20442;-86
2022/02/22 02:45:23;;;;;;;6.00;2.13;;;4.00;80.00;;;2.47;79.47;97655.69;5053524;28;20443;-88
2022/02/22 02:47:50;;;;;;;2.87;1.70;;;4.00;80.00;;;2.50;79.81;97663.38;5047319;28;20497;-85
2022/02/22 02:50:17;;;;;;;2.30;1.40;;;4.00;79.90;;;2.51;79.58;97667.69;5040963;28;20450;-89
2022/02/22 02:52:44;;;;;;;5.17;2.40;;;4.00;80.20;;;2.50;79.06;97663.38;5038539;28;20932;-88
2022/02/22 02:55:11;;;;;;;5.87;2.00;;;4.00;79.70;;;2.53;79.09;97681.69;5041413;28;20439;-89
2022/02/22 02:57:40;;;;;;;5.43;1.57;;;4.00;79.70;;;2.62;78.95;97676.31;5042036;28;20478;-88
2022/02/22 03:00:09;;;;;;;7.83;1.77;;;4.10;79.40;;;2.54;78.76;97678.03;5041793;28;20479;-89
2022/02/22 03:02:36;;;;;;;7.43;2.37;;;4.10;79.40;;;2.58;78.63;97683.00;5042985;28;20445;-88
2022/02/22 03:05:03;;;;;;;5.77;2.07;;;4.00;79.20;;;2.58;79.03;97688.34;5044031;28;20470;-88
2022/02/22 03:07:30;;;;;;;7.37;3.10;;;4.00;79.40;;;2.10;79.16;97614.50;5044185;28;20460;-89
2022/02/22 03:09:57;;;;;;;6.07;1.60;;;4.00;79.60;;;2.60;79.04;97695.19;5036117;28;20434;-86
2022/02/22 03:12:24;;;;;;;6.17;1.80;;;4.00;79.40;;;2.65;78.96;97705.31;5036805;28;20488;-85
2022/02/22 03:14:52;;;;;;;9.03;1.80;;;4.10;79.60;;;2.50;79.14;97692.72;5037305;28;20834;-85
2022/02/22 03:17:19;;;;;;;3.80;1.70;;;4.10;79.30;;;2.57;78.63;97702.69;5038095;28;20423;-85
2022/02/22 03:19:46;;;;;;;7.63;2.20;;;4.00;79.30;;;2.40;79.39;97689.41;5036567;28;20512;-85
2022/02/22 03:22:13;;;;;;;1.93;1.60;;;4.00;79.70;;;2.37;79.58;97716.41;5038102;28;20434;-85
2022/02/22 03:24:42;;;;;;;5.63;2.10;;;3.90;79.90;;;2.32;80.15;97724.91;5038000;28;20466;-86
2022/02/22 03:27:09;;;;;;;7.53;2.13;;;3.80;80.10;;;2.26;80.43;97734.41;5037880;28;20435;-84
2022/02/22 03:29:35;;;;;;;9.60;2.10;;;3.80;80.40;;;2.21;80.87;97742.09;5037575;28;20497;-84
2022/02/22 03:32:05;;;;;;;5.10;2.07;;;3.70;80.60;;;2.16;80.65;97743.59;5036695;28;20458;-83
2022/02/22 03:34:32;;;;;;;4.83;1.87;;;3.70;80.90;;;2.08;80.92;97741.78;5037658;28;20466;-84
2022/02/22 03:36:59;;;;;;;5.70;2.43;;;3.60;80.90;;;2.11;81.02;97752.09;5036773;28;20438;-85
2022/02/22 03:39:26;;;;;;;8.43;2.20;;;3.60;81.30;;;2.11;80.99;97762.75;5037802;28;20469;-86
2022/02/22 03:41:53;;;;;;;6.10;2.00;;;3.60;81.30;;;2.07;81.08;97764.91;5036897;28;20830;-86
2022/02/22 03:44:20;;;;;;;7.80;2.33;;;3.60;81.40;;;1.66;81.09;97722.28;5036683;28;20475;-85
2022/02/22 03:46:47;;;;;;;7.07;2.27;;;3.50;81.10;;;1.46;80.27;97698.63;5036727;28;20850;-85
2022/02/22 03:49:17;;;;;;;4.70;2.10;;;3.50;80.90;;;1.72;80.36;97728.78;5036188;28;20542;-85
2022/02/22 03:51:44;;;;;;;7.43;2.27;;;3.50;80.60;;;1.98;80.67;97788.06;5036434;28;20823;-85
2022/02/22 03:54:10;;;;;;;7.60;2.23;;;3.50;80.70;;;1.98;80.76;97796.06;5038051;28;20471;-84
2022/02/22 03:56:37;;;;;;;3.13;1.77;;;3.50;80.80;;;1.95;79.80;97801.75;5036033;28;20481;-83
2022/02/22 03:59:04;;;;;;;9.27;2.57;;;3.50;80.00;;;1.89;79.83;97796.25;5036559;28;20901;-84
2022/02/22 04:01:31;;;;;;;7.10;2.13;;;3.50;80.00;;;1.90;79.85;97825.41;5041420;28;20477;-84
2022/02/22 04:03:58;;;;;;;6.07;2.60;;;3.40;79.90;;;1.84;79.88;97812.72;5050771;28;20581;-82
2022/02/22 04:06:27;;;;;;;7.50;2.37;;;3.40;79.40;;;1.85;79.43;97811.72;5055772;28;20561;-81
2022/02/22 04:08:54;;;;;;;9.93;2.07;;;3.40;79.60;;;1.86;79.50;97829.38;5055180;28;20458;-81
2022/02/22 04:11:21;;;;;;;10.07;2.83;;;3.40;79.40;;;1.73;79.88;97845.84;5052178;28;20435;-80
2022/02/22 04:13:48;;;;;;;11.67;2.40;;;3.30;79.50;;;1.87;79.35;97835.53;5057455;28;20457;-82
2022/02/22 04:16:15;;;;;;;15.33;2.57;;;3.40;79.20;;;1.87;79.05;97841.69;5044392;28;20493;-83
2022/02/22 04:18:42;;;;;;;12.30;2.50;;;3.30;79.30;;;1.75;79.33;97840.34;5039535;28;20470;-81
2022/02/22 04:21:09;;;;;;;5.10;2.30;;;3.30;79.10;;;1.73;79.67;97860.97;5037097;28;20427;-81
2022/02/22 04:23:37;;;;;;;6.80;3.20;;;3.20;79.30;;;1.60;79.98;97854.31;5035347;28;20486;-82
2022/02/22 04:26:04;;;;;;;10.60;3.13;;;3.20;79.50;;;1.69;79.78;97865.81;5034707;28;20497;-82
2022/02/22 04:28:31;;;;;;;8.73;2.70;;;3.20;79.60;;;1.74;79.64;97867.97;5038283;28;20462;-82
2022/02/22 04:30:58;;;;;;;11.17;2.70;;;3.20;79.60;;;1.68;80.04;97867.63;5036416;28;20828;-83
2022/02/22 04:33:25;;;;;;;7.37;2.90;;;3.20;79.60;;;1.65;79.91;97867.97;5035622;28;20441;-84
2022/02/22 04:35:52;;;;;;;7.83;2.60;;;3.20;79.70;;;1.65;80.32;97881.28;5035239;28;20938;-84
2022/02/22 04:38:19;;;;;;;9.57;2.63;;;3.10;79.90;;;1.55;80.53;97868.09;5036577;28;20438;-83
2022/02/22 04:40:48;;;;;;;6.27;2.30;;;3.10;80.20;;;1.51;80.99;97868.56;5036916;28;20530;-82
2022/02/22 04:43:15;;;;;;;8.40;2.57;;;3.00;80.70;;;1.50;81.62;97880.22;5036320;28;20443;-83
2022/02/22 04:45:42;;;;;;;4.60;2.33;;;3.00;81.40;;;1.49;81.57;97886.53;5049208;28;20462;-85
2022/02/22 04:48:09;;;;;;;12.63;3.90;;;3.00;82.10;;;1.57;81.69;97886.56;5054065;28;20443;-85
2022/02/22 04:50:36;;;;;;;11.07;2.63;;;3.10;82.30;;;1.51;81.37;97863.25;5051368;28;20431;-85
2022/02/22 04:53:03;;;;;;;9.00;2.43;;;3.10;82.00;;;1.69;81.57;97887.94;5040140;28;20521;-88
2022/02/22 04:55:31;;;;;;;11.40;3.10;;;3.20;81.80;;;1.79;81.22;97898.44;5039116;28;20538;-86
2022/02/22 04:57:59;;;;;;;14.30;3.53;;;3.30;81.70;;;1.81;81.41;97884.97;5036076;28;20529;-85
2022/02/22 05:00:26;;;;;;;7.20;1.90;;;3.30;81.50;;;1.88;80.65;97901.97;5035280;28;20435;-86
2022/02/22 05:02:53;;;;;;;13.17;3.07;;;3.40;81.10;;;1.68;80.76;97870.28;5036470;28;20438;-85
2022/02/22 05:05:20;;;;;;;7.40;2.17;;;3.40;80.90;;;1.84;80.83;97900.63;5034591;28;20500;-84
2022/02/22 05:07:47;;;;;;;9.70;2.80;;;3.40;81.00;;;1.93;80.61;97901.47;5036100;28;20501;-84
2022/02/22 05:10:14;;;;;;;7.37;2.40;;;3.40;80.90;;;1.93;80.58;97921.00;5034038;28;20861;-82
2022/02/22 05:12:43;;;;;;;8.50;2.57;;;3.40;80.70;;;1.95;79.94;97919.00;5035145;28;20946;-82
2022/02/22 05:15:12;;;;;;;6.00;2.20;;;3.40;80.00;;;1.93;80.08;97923.66;5036535;28;20526;-82
2022/02/22 05:17:39;;;;;;;10.43;1.97;;;3.40;80.00;;;1.91;79.66;97912.31;5033072;28;20926;-81
2022/02/22 05:20:09;;;;;;;14.10;3.10;;;3.40;79.70;;;2.04;78.87;97916.34;5033562;28;20481;-81
2022/02/22 05:22:40;;;;;;;5.80;1.93;;;3.50;79.20;;;2.02;78.28;97934.31;5035018;28;20477;-82
2022/02/22 05:25:09;;;;;;;7.10;2.73;;;3.60;78.80;;;2.07;78.47;97918.69;5034915;28;21025;-82
2022/02/22 05:27:36;;;;;;;10.70;2.60;;;3.60;78.40;;;2.20;77.85;97935.06;5035403;28;20506;-82
2022/02/22 05:30:03;;;;;;;6.30;2.43;;;3.70;78.20;;;1.69;77.63;97855.97;5033614;28;20546;-85
2022/02/22 05:32:32;;;;;;;8.10;2.43;;;3.60;78.00;;;2.04;78.27;97933.16;5036302;28;20551;-84
2022/02/22 05:35:00;;;;;;;7.00;2.13;;;3.50;78.20;;;1.89;78.52;97918.81;5035029;28;20537;-84
2022/02/22 05:37:28;;;;;;;10.13;3.27;;;3.50;78.30;;;1.84;78.80;97932.59;5034370;28;20859;-83
2022/02/22 05:39:55;;;;;;;10.67;2.43;;;3.40;78.50;;;1.62;79.29;97926.88;5036437;28;20471;-86
2022/02/22 05:42:22;;;;;;;6.27;2.30;;;3.30;79.00;;;1.64;79.77;97954.19;5036583;28;20443;-91
2022/02/22 05:44:50;;;;;;;7.43;2.43;;;3.20;79.30;;;1.52;79.94;97943.00;5035908;28;20917;-93
2022/02/22 05:47:17;;;;;;;11.33;2.90;;;3.10;79.70;;;1.25;79.74;97898.75;5034356;28;20496;-85
2022/02/22 05:49:46;;;;;;;7.00;2.60;;;3.20;79.80;;;1.72;80.09;97965.84;5036454;28;20991;-83
2022/02/22 05:52:14;;;;;;;10.03;2.77;;;3.20;80.00;;;1.70;80.36;97974.84;5049670;28;20918;-78
2022/02/22 05:54:42;;;;;;;7.50;2.60;;;3.20;80.10;;;1.79;79.62;97966.91;5048432;28;20451;-83
2022/02/22 05:57:10;;;;;;;10.80;2.97;;;3.30;79.70;;;1.87;79.14;97982.09;5036729;28;20538;-77
2022/02/22 05:59:37;;;;;;;12.77;3.40;;;3.30;79.40;;;1.86;79.10;97983.09;5034283;28;20521;-79
2022/02/22 06:02:04;;;;;;;11.53;2.87;;;3.30;79.20;;;1.87;79.39;97985.56;5033984;28;20434;-78
2022/02/22 06:04:32;;;;;;;8.03;1.83;;;3.30;79.20;;;1.83;79.30;97997.56;5033543;28;20450;-78
2022/02/22 06:07:00;;;;;;;12.20;2.43;;;3.30;79.40;;;1.76;79.79;97993.88;5033209;28;20504;-77
2022/02/22 06:09:27;;;;;;;5.80;2.10;;;3.20;79.60;;;1.73;79.82;98008.34;5033990;28;20470;-76
2022/02/22 06:11:54;;;;;;;6.17;1.90;;;3.20;79.70;;;1.74;79.73;98011.81;5033659;28;20454;-81
2022/02/22 06:14:21;;;;;;;7.00;2.47;;;3.20;79.80;;;1.66;80.25;98018.78;5033695;28;20488;-76
2022/02/22 06:16:48;;;;;;;11.13;2.63;;;3.20;80.30;;;1.69;80.62;98029.13;5033655;28;20474;-77
2022/02/22 06:19:15;;;;;;;8.00;3.30;;;3.20;80.60;;;1.74;80.58;98028.66;5033284;28;20513;-74
2022/02/22 06:21:42;;;;;;;12.00;3.00;;;3.20;80.80;;;1.79;80.76;98037.00;5033785;28;20469;-76
2022/02/22 06:24:10;;;;;;;10.87;3.47;;;3.30;81.00;;;1.89;80.70;98052.03;5033820;28;20441;-76
2022/02/22 06:26:37;;;;;;;8.30;2.37;;;3.30;80.90;;;1.92;80.33;98041.91;5033390;28;20433;-77
2022/02/22 06:29:05;;;;;;;8.27;2.93;;;3.40;80.80;;;1.92;80.71;98046.38;5035927;28;21056;-77
2022/02/22 06:31:32;;;;;;;7.00;2.83;;;3.40;81.00;;;1.95;80.90;98054.91;5035871;28;20453;-78
2022/02/22 06:33:59;;;;;;;5.10;1.93;;;3.40;81.10;;;1.84;81.01;98039.19;5035698;28;20517;-78
2022/02/22 06:36:26;;;;;;;13.17;2.90;;;3.40;81.30;;;1.82;81.28;98058.00;5037645;28;20446;-78
2022/02/22 06:38:53;;;;;;;12.17;2.60;;;3.30;81.30;;;1.75;81.78;98059.63;5037455;28;20453;-77
2022/02/22 06:41:21;;;;;;;10.47;3.23;;;3.30;82.30;;;1.67;82.46;98068.41;5037698;28;20589;-77
2022/02/22 06:43:48;;;;;;;9.17;2.60;;;3.20;83.10;;;1.57;83.11;98070.31;5036344;28;20457;-76
2022/02/22 06:46:15;;;;;;;7.87;3.03;;;3.10;84.30;;;1.60;83.18;98085.16;5036141;28;20478;-78
2022/02/22 06:48:42;;;;;;;8.00;3.23;;;3.10;84.80;;;1.67;82.97;98087.06;5037512;28;20442;-78
2022/02/22 06:51:09;;;;;;;7.80;2.93;;;3.10;85.00;;;1.62;83.50;98092.03;5037600;28;20529;-78
2022/02/22 06:53:36;;;;;;;5.20;2.67;;;3.10;85.10;;;1.60;83.62;98091.34;5036252;28;20487;-79
2022/02/22 06:56:04;;;;;;;15.50;3.30;;;3.10;85.50;;;1.24;83.85;98035.50;5035982;28;20477;-80
2022/02/22 06:58:32;;;;;;;10.53;2.80;;;3.10;86.00;;;1.67;83.83;98103.03;5035700;28;20925;-81
2022/02/22 07:00:59;;;;;;;7.57;2.43;;;3.10;86.00;;;1.66;83.85;98112.00;5033698;28;20454;-80
2022/02/22 07:03:26;;;;;;;13.80;3.00;;;3.20;86.10;;;1.66;83.78;98111.16;5036144;28;20945;-80
2022/02/22 07:05:53;;;;;;;4.23;2.30;;;3.10;85.90;;;1.67;83.99;98123.53;5040347;28;20504;-80
2022/02/22 07:08:20;;;;;;;9.33;3.20;;;3.20;86.40;;;1.68;84.15;98130.53;5050247;28;20438;-81
2022/02/22 07:10:49;;;;;;;9.77;3.57;;;3.20;86.50;;;1.77;83.86;98134.06;5045210;28;20458;-82
2022/02/22 07:13:16;;;;;;;12.13;3.40;;;3.30;86.60;;;1.74;84.32;98124.56;5037228;28;20445;-77
2022/02/22 07:15:44;;;;;;;10.07;3.90;;;3.20;86.60;;;1.76;83.67;98132.41;5037203;28;20663;-81
2022/02/22 07:18:13;;;;;;;7.93;3.00;;;3.20;86.20;;;1.38;82.98;98084.69;5037148;28;20465;-81
2022/02/22 07:20:40;;;;;;;8.10;2.60;;;3.20;84.90;;;1.83;82.39;98142.28;5052285;28;20445;-83
2022/02/22 07:23:08;;;;;;;8.27;2.93;;;3.30;83.60;;;1.86;81.96;98154.44;5036722;28;20517;-83
2022/02/22 07:25:35;;;;;;;11.20;2.43;;;3.30;82.40;;;1.84;81.35;98151.09;5037042;28;20434;-83
2022/02/22 07:28:03;;;;;;;8.57;2.80;;;3.30;81.80;;;1.88;80.98;98152.44;5037416;28;20481;-82
2022/02/22 07:30:31;;;;;;;10.00;3.03;;;3.30;81.90;;;1.90;81.30;98155.81;5036852;28;21024;-83
2022/02/22 07:33:01;;;;;;;13.67;3.20;;;3.40;82.20;;;2.03;81.75;98154.53;5039878;28;20504;-82
2022/02/22 07:35:31;;;;;;;10.07;4.10;;;3.50;82.90;;;2.25;81.14;98169.16;5038273;28;20477;-82
2022/02/22 07:37:58;;;;;;;4.73;2.60;;;3.60;82.70;;;2.44;81.07;98173.44;5038866;28;20338;-78
2022/02/22 07:40:26;;;;;;;10.77;3.30;;;3.80;81.90;;;2.42;80.81;98164.75;5035263;28;20438;-77
2022/02/22 07:42:56;;;;;;;8.87;3.07;;;3.90;81.60;;;2.60;80.37;98166.50;5036561;28;20442;-79
2022/02/22 07:45:23;;;;;;;11.35;3.65;;;4.00;81.70;;;2.74;80.03;98165.88;5036493;28;20444;-79
2022/02/22 07:47:50;;;;;;;9.15;3.35;;;4.10;81.00;;;2.60;80.28;98153.16;5037010;28;20487;-80
2022/02/22 07:50:19;;;;;;;8.87;3.57;;;4.10;81.00;;;2.71;79.55;98160.88;5038389;28;20200;-80
2022/02/22 07:52:46;;;;;;;12.00;3.60;;;4.10;80.50;;;2.58;79.23;98177.34;5058324;28;20443;-80
2022/02/22 07:55:13;;;;;;;10.73;3.07;;;4.10;80.30;;;2.66;78.97;98172.03;5059855;28;20438;-79
2022/02/22 07:57:41;;;;;;;10.57;3.20;;;4.10;80.20;;;2.80;79.18;98183.91;5044628;28;20946;-80
2022/02/22 08:00:10;;;;;;;13.93;3.90;;;4.20;80.00;;;2.93;79.96;98193.28;5038163;28;20477;-81
2022/02/22 08:02:38;;;;;;;10.17;3.27;;;4.30;80.80;;;3.27;78.30;98189.72;5035839;28;20443;-80
2022/02/22 08:05:06;;;;;;;16.80;4.43;;;4.60;80.30;;;3.39;78.12;98199.06;5035117;28;20435;-78
2022/02/22 08:07:36;;;;;;;8.87;2.80;;;4.70;79.80;;;2.78;77.68;98121.84;5034931;28;20556;-81
2022/02/22 08:10:04;;;;;;;15.07;4.67;;;4.70;78.80;;;3.57;79.56;98211.47;5033453;28;20469;-79
2022/02/22 08:12:31;;;;;;;9.23;4.03;;;4.80;80.90;;;3.62;77.29;98217.13;5036331;28;20481;-77
2022/02/22 08:14:58;;;;;;;10.30;3.50;;;5.00;79.10;;;3.59;76.44;98228.16;5051177;28;20493;-78
2022/02/22 08:17:25;;;;;;;10.27;3.13;;;5.00;78.30;;;3.61;76.93;98239.50;5035966;28;20447;-80
2022/02/22 08:19:52;;;;;;;12.30;3.23;;;5.00;78.50;;;3.59;78.38;98232.66;5036255;28;20530;-79
2022/02/22 08:22:19;;;;;;;10.60;3.27;;;5.00;80.50;;;3.88;77.64;98248.22;5036433;28;20450;-76
2022/02/22 08:24:47;;;;;;;12.70;3.40;;;5.20;79.40;;;3.71;77.07;98243.84;5035786;28;20526;-78
2022/02/22 08:27:14;;;;;;;6.73;2.73;;;5.10;78.40;;;3.44;77.14;98249.34;5034357;28;20806;-78
2022/02/22 08:29:42;;;;;;;13.93;3.30;;;4.90;77.90;;;3.49;77.04;98249.69;5034408;28;20455;-78
2022/02/22 08:32:09;;;;;;;16.33;3.47;;;4.90;78.50;;;3.60;77.70;98247.69;5034185;28;20447;-78
2022/02/22 08:34:36;;;;;;;9.77;3.30;;;4.90;79.20;;;3.50;76.66;98248.69;5034194;28;20537;-78
2022/02/22 08:37:03;;;;;;;11.27;3.17;;;5.00;78.40;;;4.03;76.98;98253.72;5034068;28;20925;-78
2022/02/22 08:39:30;;;;;;;7.80;2.57;;;5.20;78.60;;;3.63;74.91;98204.59;5035149;28;20470;-78
2022/02/22 08:41:58;;;;;;;7.63;2.40;;;5.40;77.40;;;3.78;74.48;98271.59;5034364;28;20838;-78
2022/02/22 08:44:26;;;;;;;5.57;2.67;;;5.20;76.20;;;3.78;73.75;98260.91;5035230;28;20533;-79
2022/02/22 08:46:53;;;;;;;10.00;2.63;;;5.20;75.70;;;3.92;74.16;98284.31;5035676;28;20957;-78
2022/02/22 08:49:20;;;;;;;10.17;3.40;;;5.20;76.20;;;4.03;73.71;98268.94;5033761;28;20462;-78
2022/02/22 08:51:47;;;;;;;13.83;3.10;;;5.40;76.20;;;4.13;72.53;98274.94;5033789;28;20462;-78
2022/02/22 08:54:14;;;;;;;12.53;3.10;;;5.50;75.60;;;4.16;71.97;98274.59;5033495;28;20441;-79
2022/02/22 08:56:41;;;;;;;7.67;2.60;;;5.50;75.00;;;4.21;71.87;98285.66;5033325;28;21021;-79
2022/02/22 08:59:09;;;;;;;7.77;2.83;;;5.50;74.90;;;4.32;71.75;98291.66;5034422;28;20529;-78
2022/02/22 09:01:36;;;;;;;8.40;3.37;;;5.70;74.40;;;4.31;70.91;98282.81;5034627;28;20467;-79
2022/02/22 09:04:03;;;;;;;12.03;3.40;;;5.70;73.90;;;4.50;71.06;98289.63;5034742;28;20430;-79
2022/02/22 09:06:30;;;;;;;8.57;3.10;;;5.80;74.20;;;4.54;70.17;98287.44;5033330;28;20453;-78
2022/02/22 09:08:57;;;;;;;7.20;2.80;;;5.90;73.30;;;4.43;69.75;98306.53;5033691;28;20533;-79
2022/02/22 09:11:24;;;;;;;9.00;2.80;;;5.90;73.20;;;4.31;70.41;98301.53;5034567;28;20468;-77
2022/02/22 09:13:51;;;;;;;8.33;2.50;;;5.70;73.00;;;4.40;69.28;98307.72;5034534;28;20522;-80
2022/02/22 09:16:19;;;;;;;9.00;2.90;;;5.80;72.60;;;4.32;69.75;98305.03;5033263;28;20445;-79
2022/02/22 09:18:46;;;;;;;11.70;2.40;;;5.70;72.20;;;4.43;69.30;98312.72;5034869;28;20526;-78
2022/02/22 09:21:13;;;;;;;13.83;3.10;;;5.80;72.20;;;4.67;68.96;98313.69;5034703;28;20445;-78
2022/02/22 09:23:40;;;;;;;10.10;2.80;;;6.00;72.10;;;4.54;69.09;98314.19;5034308;28;20440;-79
2022/02/22 09:26:07;;;;;;;11.17;3.37;;;6.00;72.00;;;4.73;68.01;98313.00;5033389;28;20434;-78
2022/02/22 09:28:34;;;;;;;10.37;2.67;;;6.10;71.30;;;4.95;67.20;98326.69;5035225;28;20471;-78
2022/02/22 09:31:01;;;;;;;6.90;2.87;;;6.30;70.90;;;4.71;66.45;98325.72;5033418;28;20554;-78
2022/02/22 09:33:29;;;;;;;12.97;2.77;;;6.10;69.50;;;4.68;67.04;98326.06;5034454;28;20443;-77
2022/02/22 09:35:56;;;;;;;7.50;2.67;;;6.00;69.90;;;4.73;66.90;98328.25;5034310;28;20857;-78
2022/02/22 09:38:23;;;;;;;11.20;3.27;;;6.00;70.30;;;4.73;65.59;98326.38;5034591;28;20447;-78
2022/02/22 09:40:50;;;;;;;11.70;3.03;;;6.10;69.00;;;5.27;64.78;98327.59;5049157;28;20796;-79
2022/02/22 09:43:18;;;;;;;12.30;3.03;;;6.50;68.60;;;5.07;63.76;98314.56;5033411;28;20457;-77
2022/02/22 09:45:45;;;;;;;12.20;2.50;;;6.50;67.30;;;5.07;64.03;98336.00;5034713;28;20898;-78
2022/02/22 09:48:12;;;;;;;9.47;2.80;;;6.50;67.10;;;5.13;64.08;98339.84;5034139;28;20539;-79
2022/02/22 09:50:41;;;;;;;9.67;1.90;;;6.40;67.20;;;5.20;62.71;98337.31;5032877;28;20534;-80
2022/02/22 09:53:08;;;;;;;9.07;2.83;;;6.60;66.20;;;4.92;63.67;98343.94;5034688;28;20474;-78
2022/02/22 09:55:35;;;;;;;9.13;2.87;;;6.40;66.40;;;4.73;65.02;98339.78;5034179;28;20442;-78
2022/02/22 09:58:02;;;;;;;13.52;3.90;;;6.20;67.00;;;4.80;64.62;98345.28;5044117;28;20467;-80
2022/02/22 10:00:32;;;;;;;8.17;2.40;;;6.20;66.90;;;4.62;65.12;98354.34;5039220;28;20219;-78
2022/02/22 10:03:00;;;;;;;11.07;2.73;;;6.10;67.20;;;4.53;65.24;98348.16;5040277;28;20442;-79
2022/02/22 10:05:29;;;;;;;6.80;2.80;;;5.90;67.10;;;4.56;66.05;98332.78;5034262;28;20439;-78
2022/02/22 10:07:59;;;;;;;8.90;2.20;;;5.90;67.30;;;4.71;64.78;98338.28;5032849;28;20522;-78
2022/02/22 10:10:38;;;;;;;6.87;2.67;;;6.10;66.80;;;4.70;63.90;98344.63;5032726;28;20472;-80
2022/02/22 10:13:07;;;;;;;6.00;2.80;;;6.10;66.40;;;4.74;64.49;98346.78;5033374;28;20545;-79
2022/02/22 10:15:38;;;;;;;9.70;2.40;;;6.10;66.20;;;4.70;63.96;98350.81;5032788;28;20451;-82
2022/02/22 10:18:06;;;;;;;7.43;2.60;;;6.10;65.80;;;4.92;63.18;98353.78;5034182;28;20525;-79
2022/02/22 10:20:33;;;;;;;10.23;2.60;;;6.20;65.10;;;5.17;62.29;98351.91;5033781;28;20445;-79
2022/02/22 10:23:02;;;;;;;14.50;3.37;;;6.40;64.80;;;5.16;62.47;98349.38;5032471;28;20449;-78
2022/02/22 10:25:29;;;;;;;6.40;2.90;;;6.40;64.50;;;5.32;61.68;98348.50;5033761;28;20442;-81
2022/02/22 10:27:59;;;;;;;8.20;3.00;;;6.60;64.20;;;5.29;61.31;98306.81;5034300;28;20449;-79
2022/02/22 10:30:38;;;;;;;9.70;2.90;;;6.80;63.50;;;5.46;60.66;98344.25;5033890;28;20512;-78